Latest Weather Observations for Cressy

IDT60801

Issued at 6:02 pm EST Saturday 27 May 2017 (issued every 30 minutes, with the page automatically refreshed every 10 minutes)

About weather observations | Map of weather stations | Latest weather observations for TAS | Other Formats
Station Details ID: 091306 Name: CRESSY RESEARCH STATION Lat: -41.73 Lon: 147.08 Height: 148.0 m
Data from the previous 72 hours. | See also: Recent months at Cressy
Date/Time
EST
Temp
°C
App
Temp
°C
Dew
Point
°C
Rel
Hum
%
Delta-T
°C
Wind Press
QNH
hPa
Press
MSL
hPa
Rain since
9am
mm
Dir  Spd
km/h
Gust
km/h
Spd
kts
Gust
kts
27/06:00pm 12.9 8.1 11.5 91 0.7 N 28 43 15 23 - - 2.2
27/05:30pm 13.4 9.3 11.3 87 1.1 N 24 32 13 17 - - 2.0
27/05:00pm 13.6 9.5 11.3 86 1.2 N 24 32 13 17 - - 2.0
27/04:30pm 13.5 9.8 11.6 88 1.0 N 22 30 12 16 - - 2.0
27/04:00pm 13.6 10.3 11.7 88 1.0 N 20 30 11 16 - - 2.0
27/03:30pm 13.8 10.2 11.7 87 1.1 N 22 30 12 16 - - 2.0
27/03:00pm 14.0 10.4 11.9 87 1.1 N 22 30 12 16 - - 2.0
27/02:30pm 14.0 9.7 12.2 89 1.0 NNW 26 37 14 20 - - 2.0
27/02:00pm 13.4 10.3 12.1 92 0.7 NNW 20 30 11 16 - - 1.8
27/01:30pm 14.5 8.3 11.5 82 1.6 NNW 35 48 19 26 - - 0.4
27/01:00pm 14.6 9.8 11.6 82 1.6 NNW 28 35 15 19 - - 0.4
27/12:30pm 13.3 10.9 11.4 88 1.0 WNW 15 26 8 14 - - 0.4
27/12:00pm 14.5 10.6 12.0 85 1.4 NNW 24 41 13 22 - - 0.4
27/11:30am 12.3 10.0 10.5 89 0.9 NNW 13 19 7 10 - - 0.4
27/11:00am 10.7 9.3 9.5 92 0.6 NW 7 17 4 9 - - 0.4
27/10:30am 10.6 8.7 9.0 90 0.8 NNW 9 11 5 6 - - 0.0
27/10:00am 10.9 7.3 8.5 85 1.2 NNW 17 20 9 11 - - 0.0
27/09:30am 10.4 7.1 8.2 86 1.1 NNW 15 19 8 10 - - 0.0
27/09:00am 10.1 6.0 7.9 86 1.1 N 19 24 10 13 - - 0.6
27/08:30am 9.6 6.2 7.5 87 1.0 N 15 20 8 11 - - 0.0
27/08:00am 9.7 5.8 7.3 85 1.1 NNW 17 20 9 11 - - 0.0
27/07:30am 9.3 5.7 6.9 85 1.1 NNW 15 20 8 11 - - 0.0
27/07:00am 9.3 5.7 6.9 85 1.1 NNW 15 19 8 10 - - 0.0
27/06:30am 8.9 5.3 6.7 86 1.0 NNW 15 19 8 10 - - 0.0
27/06:00am 8.4 5.1 6.2 86 1.0 NNW 13 17 7 9 - - 0.0
27/05:30am 7.8 4.3 5.3 84 1.1 NNW 13 17 7 9 - - 0.0
27/05:00am 7.8 4.3 5.3 84 1.1 NNW 13 15 7 8 - - 0.0
27/04:30am 8.2 4.3 5.3 82 1.3 NNW 15 20 8 11 - - 0.0
27/04:00am 8.4 3.8 5.7 83 1.2 NNW 19 26 10 14 - - 0.0
27/03:30am 8.6 4.2 5.0 78 1.6 N 17 22 9 12 - - 0.0
27/03:00am 8.7 3.9 4.9 77 1.7 N 19 26 10 14 - - 0.0
27/02:30am 8.7 4.3 4.9 77 1.7 NNW 17 20 9 11 - - 0.0
27/02:00am 8.5 4.5 5.1 79 1.5 NNW 15 17 8 9 - - 0.0
27/01:30am 8.6 5.1 5.5 81 1.4 N 13 17 7 9 - - 0.0
27/01:00am 8.8 4.9 5.5 80 1.5 N 15 20 8 11 - - 0.0
27/12:30am 8.5 5.5 6.0 84 1.1 N 11 17 6 9 - - 0.0
27/12:00am 8.4 5.7 5.5 82 1.3 N 9 13 5 7 - - 0.0
 
Date/Time
EST
Temp
°C
App
Temp
°C
Dew
Point
°C
Rel
Hum
%
Delta-T
°C
Wind Press
QNH
hPa
Press
MSL
hPa
Rain since
9am
mm
Dir  Spd
km/h
Gust
km/h
Spd
kts
Gust
kts
26/11:30pm 8.5 4.3 5.8 83 1.2 NNW 17 20 9 11 - - 0.0
26/11:00pm 7.5 4.6 6.3 92 0.6 NW 11 17 6 9 - - 0.0
26/10:30pm 5.5 3.3 5.1 97 0.2 NNW 6 9 3 5 - - 0.0
26/10:00pm 4.4 3.0 3.7 95 0.3 CALM 0 0 0 0 - - 0.0
26/09:30pm 5.0 2.0 4.3 95 0.3 NNW 9 11 5 6 - - 0.0
26/09:00pm 5.1 3.9 4.4 95 0.3 CALM 0 0 0 0 - - 0.0
26/08:30pm 5.5 4.2 4.3 92 0.5 CALM 0 0 0 0 - - 0.0
26/08:00pm 7.5 4.1 5.8 89 0.8 N 13 15 7 8 - - 0.0
26/07:30pm 6.2 3.3 4.7 90 0.7 N 9 13 5 7 - - 0.0
26/07:00pm 6.5 3.3 5.0 90 0.7 N 11 13 6 7 - - 0.0
26/06:30pm 6.9 4.4 4.6 85 1.0 N 7 11 4 6 - - 0.0
26/06:00pm 7.6 5.0 4.2 79 1.5 NNE 7 9 4 5 - - 0.0
26/05:30pm 8.9 5.2 4.7 75 1.9 N 13 17 7 9 - - 0.0
26/05:00pm 10.5 7.3 4.9 68 2.6 N 11 17 6 9 - - 0.0
26/04:30pm 11.7 8.5 5.1 64 3.1 N 11 15 6 8 - - 0.0
26/04:00pm 12.9 9.3 5.1 59 3.6 N 13 19 7 10 - - 0.0
26/03:30pm 13.3 9.1 5.5 59 3.7 N 17 22 9 12 - - 0.0
26/03:00pm 13.7 9.1 5.6 58 3.8 NNW 19 24 10 13 - - 0.0
26/02:30pm 13.7 9.1 5.6 58 3.8 NW 19 28 10 15 - - 0.0
26/02:00pm 13.8 9.3 5.9 59 3.8 NNW 19 24 10 13 - - 0.0
26/01:30pm 13.6 9.0 5.5 58 3.8 NNW 19 26 10 14 - - 0.0
26/01:00pm 13.3 8.5 5.7 60 3.6 NNW 20 24 11 13 - - 0.0
26/12:30pm 12.7 7.8 4.9 59 3.6 N 20 26 11 14 - - 0.0
26/12:00pm 12.8 8.4 5.0 59 3.6 NNW 17 22 9 12 - - 0.0
26/11:30am 12.5 8.5 5.0 60 3.5 N 15 20 8 11 - - 0.0
26/11:00am 12.0 9.0 5.9 66 2.9 N 11 19 6 10 - - 0.0
26/10:30am 10.9 7.5 6.1 72 2.3 N 13 19 7 10 - - 0.0
26/10:00am 9.7 6.3 6.1 78 1.7 NNE 13 17 7 9 - - 0.0
26/09:30am 8.3 5.8 4.7 78 1.6 ENE 7 11 4 6 - - 0.0
26/09:00am 6.6 3.5 3.8 82 1.2 NNE 9 15 5 8 - - 1.4
26/08:30am 6.0 2.5 3.3 83 1.1 NNE 11 15 6 8 - - 1.4
26/08:00am 4.7 1.5 3.0 89 0.7 N 9 13 5 7 - - 1.4
26/07:30am 4.2 0.9 2.7 90 0.6 N 9 11 5 6 - - 1.2
26/07:00am 4.8 1.6 3.0 88 0.7 N 9 11 5 6 - - 1.2
26/06:30am 5.0 2.2 3.0 87 0.8 NNW 7 9 4 5 - - 1.2
26/06:00am 5.5 2.1 2.0 78 1.4 NNE 9 13 5 7 - - 1.2
26/05:30am 7.5 2.9 1.4 65 2.5 W 15 19 8 10 - - 1.2
26/05:00am 8.1 3.2 2.1 66 2.5 W 17 24 9 13 - - 1.2
26/04:30am 5.4 2.4 1.1 74 1.7 S 6 11 3 6 - - 1.2
26/04:00am 7.0 4.0 2.1 71 2.0 SW 7 13 4 7 - - 1.2
26/03:30am 5.4 3.0 2.4 81 1.2 W 4 7 2 4 - - 1.2
26/03:00am 5.9 3.2 2.5 79 1.4 ESE 6 9 3 5 - - 1.2
26/02:30am 6.0 2.9 3.7 85 1.0 WNW 9 15 5 8 - - 1.2
26/02:00am 8.3 4.5 3.9 74 1.9 WNW 13 17 7 9 - - 1.2
26/01:30am 7.6 4.2 4.2 79 1.5 NW 11 15 6 8 - - 1.2
26/01:00am 10.8 5.9 4.0 63 3.0 WSW 19 26 10 14 - - 1.2
26/12:30am 8.1 5.8 5.7 85 1.1 S 7 19 4 10 - - 1.2
26/12:00am 8.7 5.2 7.0 89 0.8 NW 15 20 8 11 - - 1.2
 
Date/Time
EST
Temp
°C
App
Temp
°C
Dew
Point
°C
Rel
Hum
%
Delta-T
°C
Wind Press
QNH
hPa
Press
MSL
hPa
Rain since
9am
mm
Dir  Spd
km/h
Gust
km/h
Spd
kts
Gust
kts
25/11:30pm 9.3 6.0 7.9 91 0.7 NW 15 19 8 10 - - 1.2
25/11:00pm 10.2 7.4 8.5 89 0.8 NW 13 20 7 11 - - 1.2
25/10:30pm 11.0 7.3 7.9 81 1.5 NW 17 24 9 13 - - 1.2
25/10:00pm 9.7 8.1 8.9 95 0.4 WNW 7 22 4 12 - - 1.0
25/09:30pm 9.9 7.6 9.0 94 0.4 NW 11 15 6 8 - - 1.0
25/09:00pm 10.5 8.3 9.4 93 0.6 W 11 13 6 7 - - 1.0
25/08:30pm 10.4 8.6 9.3 93 0.6 WNW 9 13 5 7 - - 1.0
25/08:00pm 10.9 9.2 9.8 93 0.6 NW 9 11 5 6 - - 1.0
25/07:30pm 11.6 8.2 10.5 93 0.6 NNW 19 24 10 13 - - 1.0
25/07:00pm 11.5 9.7 10.9 96 0.3 N 11 19 6 10 - - 1.0
25/06:30pm 11.7 9.2 10.9 95 0.4 NNW 15 20 8 11 - - 1.0
25/06:00pm 11.6 8.6 10.7 94 0.5 NNW 17 20 9 11 - - 0.8
25/05:30pm 12.0 7.6 10.4 90 0.8 NNW 24 32 13 17 - - 0.0
25/05:00pm 11.9 7.3 9.6 86 1.2 NNW 24 32 13 17 - - 0.0
25/04:30pm 12.3 7.0 9.7 84 1.3 NNW 28 37 15 20 - - 0.0
25/04:00pm 12.9 7.6 9.9 82 1.6 NNW 28 35 15 19 - - 0.0
25/03:30pm 13.6 7.5 9.6 77 2.1 NNW 32 43 17 23 - - 0.0
25/03:00pm 14.5 8.8 9.7 73 2.5 NW 30 44 16 24 - - 0.0
25/02:30pm 14.5 8.2 9.7 73 2.5 NW 33 48 18 26 - - 0.0
25/02:00pm 14.2 8.7 10.6 79 1.9 NNW 30 41 16 22 - - 0.0
25/01:30pm 13.5 8.3 10.3 81 1.7 NNW 28 39 15 21 - - 0.0
25/01:00pm 13.9 8.3 10.3 79 1.9 NNW 30 35 16 19 - - 0.0
25/12:30pm 13.0 7.7 9.8 81 1.7 NNW 28 39 15 21 - - 0.0
25/12:00pm 12.6 7.6 9.6 82 1.5 NNW 26 39 14 21 - - 0.0
25/11:30am 11.5 8.8 9.1 85 1.2 NNW 13 17 7 9 - - 0.0
25/11:00am 10.8 9.3 9.1 89 0.9 WNW 7 15 4 8 - - 0.0
25/10:30am 8.9 7.1 7.2 89 0.8 NW 6 9 3 5 - - 0.0
25/10:00am 8.0 7.3 6.8 92 0.6 CALM 0 0 0 0 - - 0.0
25/09:30am 7.0 4.8 6.3 95 0.3 SSW 7 7 4 4 - - 0.0
25/09:00am 6.6 5.0 6.3 98 0.1 SW 4 7 2 4 - - 0.4
25/08:30am 5.7 4.7 5.6 99 0.0 CALM 0 0 0 0 - - 0.4
25/08:00am 3.2 1.7 2.9 98 0.1 CALM 0 0 0 0 - - 0.4
25/07:30am 2.1 0.4 1.8 98 0.1 CALM 0 0 0 0 - - 0.0
25/07:00am 1.8 -1.1 1.5 98 0.1 SE 6 7 3 4 - - 0.0
25/06:30am 1.8 -0.7 1.4 97 0.2 WNW 4 9 2 5 - - 0.0
25/06:00am 1.6 -0.2 1.2 97 0.2 CALM 0 0 0 0 - - 0.0
25/05:30am 1.9 -0.6 1.3 96 0.2 WNW 4 7 2 4 - - 0.0
25/05:00am 2.2 -0.7 1.6 96 0.2 S 6 11 3 6 - - 0.0
25/04:30am 2.9 1.3 2.3 96 0.2 CALM 0 0 0 0 - - 0.0
25/04:00am 3.3 0.6 2.9 97 0.2 SSW 6 7 3 4 - - 0.0
25/03:30am 3.4 0.5 2.8 96 0.2 E 7 11 4 6 - - 0.0
25/03:00am 3.3 0.0 2.6 95 0.3 S 9 11 5 6 - - 0.0
25/02:30am 4.4 1.3 3.4 93 0.4 SSW 9 13 5 7 - - 0.0
25/02:00am 6.5 3.0 5.3 92 0.5 N 13 19 7 10 - - 0.0
25/01:30am 5.7 2.6 3.7 87 0.8 NNW 9 15 5 8 - - 0.0
25/01:00am 6.1 3.8 4.7 91 0.6 NW 6 7 3 4 - - 0.0
25/12:30am 6.9 4.0 4.9 87 0.9 NW 9 11 5 6 - - 0.0
25/12:00am 6.5 4.0 4.7 88 0.8 W 7 13 4 7 - - 0.0
 
Date/Time
EST
Temp
°C
App
Temp
°C
Dew
Point
°C
Rel
Hum
%
Delta-T
°C
Wind Press
QNH
hPa
Press
MSL
hPa
Rain since
9am
mm
Dir  Spd
km/h
Gust
km/h
Spd
kts
Gust
kts
24/11:30pm 7.0 3.8 5.0 87 0.9 NW 11 15 6 8 - - 0.0
24/11:00pm 6.7 2.3 4.9 88 0.8 NNW 17 19 9 10 - - 0.0
24/10:30pm 6.3 3.0 4.8 90 0.7 NW 11 15 6 8 - - 0.0
24/10:00pm 6.1 3.7 4.4 89 0.7 WNW 6 7 3 4 - - 0.0
24/09:30pm 6.5 3.2 4.3 86 1.0 NNW 11 17 6 9 - - 0.0
24/09:00pm 7.1 3.1 4.8 85 1.0 N 15 20 8 11 - - 0.0
24/08:30pm 6.5 2.8 4.5 87 0.9 NNW 13 19 7 10 - - 0.0
24/08:00pm 6.9 4.0 4.6 85 1.0 NNW 9 11 5 6 - - 0.0
24/07:30pm 7.2 3.9 4.3 82 1.3 WNW 11 15 6 8 - - 0.0
24/07:00pm 8.7 5.0 4.7 76 1.8 NW 13 19 7 10 - - 0.0
24/06:30pm 8.3 4.6 4.3 76 1.8 NNW 13 17 7 9 - - 0.0

Other Formats:

Comma delimited format used in spreadsheet applications
http://www.bom.gov.au/fwo/IDT60801/IDT60801.95969.axf

JavaScript Object Notation format (JSON) in row-major order
http://www.bom.gov.au/fwo/IDT60801/IDT60801.95969.json